sensor_id;sensor_type;location;lat;lon;timestamp;temperature;humidity
5868;DHT22;2960;49.142;7.768;2022-11-15T00:02:28;9.90;81.10
5868;DHT22;2960;49.142;7.768;2022-11-15T00:04:55;9.90;81.80
5868;DHT22;2960;49.142;7.768;2022-11-15T00:07:31;9.80;81.00
5868;DHT22;2960;49.142;7.768;2022-11-15T00:09:58;9.80;81.20
5868;DHT22;2960;49.142;7.768;2022-11-15T00:12:26;9.80;81.20
5868;DHT22;2960;49.142;7.768;2022-11-15T00:14:53;9.80;81.20
5868;DHT22;2960;49.142;7.768;2022-11-15T00:17:20;9.80;81.20
5868;DHT22;2960;49.142;7.768;2022-11-15T00:19:49;9.80;81.20
5868;DHT22;2960;49.142;7.768;2022-11-15T00:22:16;9.80;81.30
5868;DHT22;2960;49.142;7.768;2022-11-15T00:24:43;9.80;81.30
5868;DHT22;2960;49.142;7.768;2022-11-15T00:27:10;9.90;81.40
5868;DHT22;2960;49.142;7.768;2022-11-15T00:29:38;9.80;81.30
5868;DHT22;2960;49.142;7.768;2022-11-15T00:32:09;9.90;81.40
5868;DHT22;2960;49.142;7.768;2022-11-15T00:34:36;9.90;81.40
5868;DHT22;2960;49.142;7.768;2022-11-15T00:37:06;9.90;81.30
5868;DHT22;2960;49.142;7.768;2022-11-15T00:39:35;9.90;81.30
5868;DHT22;2960;49.142;7.768;2022-11-15T00:42:03;9.90;81.30
5868;DHT22;2960;49.142;7.768;2022-11-15T00:44:30;9.90;81.40
5868;DHT22;2960;49.142;7.768;2022-11-15T00:46:57;9.90;81.60
5868;DHT22;2960;49.142;7.768;2022-11-15T00:49:24;9.90;81.40
5868;DHT22;2960;49.142;7.768;2022-11-15T00:51:51;9.90;81.40
5868;DHT22;2960;49.142;7.768;2022-11-15T00:54:19;9.90;81.40
5868;DHT22;2960;49.142;7.768;2022-11-15T00:56:46;9.90;81.40
5868;DHT22;2960;49.142;7.768;2022-11-15T00:59:14;9.90;81.40
5868;DHT22;2960;49.142;7.768;2022-11-15T01:01:41;9.90;81.40
5868;DHT22;2960;49.142;7.768;2022-11-15T01:04:08;9.90;81.40
5868;DHT22;2960;49.142;7.768;2022-11-15T01:06:35;9.90;81.50
5868;DHT22;2960;49.142;7.768;2022-11-15T01:09:02;9.90;81.50
5868;DHT22;2960;49.142;7.768;2022-11-15T01:11:31;9.90;81.50
5868;DHT22;2960;49.142;7.768;2022-11-15T01:13:58;9.90;81.50
5868;DHT22;2960;49.142;7.768;2022-11-15T01:16:25;9.90;81.50
5868;DHT22;2960;49.142;7.768;2022-11-15T01:18:52;9.90;81.60
5868;DHT22;2960;49.142;7.768;2022-11-15T01:21:21;9.90;82.30
5868;DHT22;2960;49.142;7.768;2022-11-15T01:23:48;9.90;81.60
5868;DHT22;2960;49.142;7.768;2022-11-15T01:26:19;9.90;81.60
5868;DHT22;2960;49.142;7.768;2022-11-15T01:28:47;9.90;81.70
5868;DHT22;2960;49.142;7.768;2022-11-15T01:31:17;9.90;81.80
5868;DHT22;2960;49.142;7.768;2022-11-15T01:33:45;9.90;82.00
5868;DHT22;2960;49.142;7.768;2022-11-15T01:36:16;9.90;82.10
5868;DHT22;2960;49.142;7.768;2022-11-15T01:38:43;9.90;82.10
5868;DHT22;2960;49.142;7.768;2022-11-15T01:41:16;9.90;82.10
5868;DHT22;2960;49.142;7.768;2022-11-15T01:43:44;10.00;81.10
5868;DHT22;2960;49.142;7.768;2022-11-15T01:46:25;10.00;81.10
5868;DHT22;2960;49.142;7.768;2022-11-15T01:48:58;10.00;81.00
5868;DHT22;2960;49.142;7.768;2022-11-15T01:51:29;10.00;81.20
5868;DHT22;2960;49.142;7.768;2022-11-15T01:54:00;10.00;81.20
5868;DHT22;2960;49.142;7.768;2022-11-15T01:56:32;10.00;81.20
5868;DHT22;2960;49.142;7.768;2022-11-15T01:59:04;10.00;81.20
5868;DHT22;2960;49.142;7.768;2022-11-15T02:01:35;10.00;81.30
5868;DHT22;2960;49.142;7.768;2022-11-15T02:04:05;10.00;81.30
5868;DHT22;2960;49.142;7.768;2022-11-15T02:06:37;10.00;81.30
5868;DHT22;2960;49.142;7.768;2022-11-15T02:09:04;10.00;81.30
5868;DHT22;2960;49.142;7.768;2022-11-15T02:11:32;10.00;81.30
5868;DHT22;2960;49.142;7.768;2022-11-15T02:13:59;10.00;81.30
5868;DHT22;2960;49.142;7.768;2022-11-15T02:16:34;10.00;81.30
5868;DHT22;2960;49.142;7.768;2022-11-15T02:19:15;10.10;81.40
5868;DHT22;2960;49.142;7.768;2022-11-15T02:21:55;10.00;81.30
5868;DHT22;2960;49.142;7.768;2022-11-15T02:24:57;10.00;81.30
5868;DHT22;2960;49.142;7.768;2022-11-15T02:27:48;10.00;81.30
5868;DHT22;2960;49.142;7.768;2022-11-15T02:30:25;10.00;81.40
5868;DHT22;2960;49.142;7.768;2022-11-15T02:33:03;10.00;81.60
5868;DHT22;2960;49.142;7.768;2022-11-15T02:35:43;9.90;82.70
5868;DHT22;2960;49.142;7.768;2022-11-15T02:38:17;9.90;82.80
5868;DHT22;2960;49.142;7.768;2022-11-15T02:40:52;9.90;83.00
5868;DHT22;2960;49.142;7.768;2022-11-15T02:43:24;9.90;82.90
5868;DHT22;2960;49.142;7.768;2022-11-15T02:46:20;9.90;83.70
5868;DHT22;2960;49.142;7.768;2022-11-15T02:49:11;9.90;83.00
5868;DHT22;2960;49.142;7.768;2022-11-15T02:51:40;9.90;83.00
5868;DHT22;2960;49.142;7.768;2022-11-15T02:54:12;9.90;83.10
5868;DHT22;2960;49.142;7.768;2022-11-15T02:56:40;9.90;83.00
5868;DHT22;2960;49.142;7.768;2022-11-15T02:59:32;9.90;83.00
5868;DHT22;2960;49.142;7.768;2022-11-15T03:02:23;9.90;82.90
5868;DHT22;2960;49.142;7.768;2022-11-15T03:05:02;9.90;83.10
5868;DHT22;2960;49.142;7.768;2022-11-15T03:07:36;9.90;83.10
5868;DHT22;2960;49.142;7.768;2022-11-15T03:10:09;9.90;83.10
5868;DHT22;2960;49.142;7.768;2022-11-15T03:12:43;9.90;83.10
5868;DHT22;2960;49.142;7.768;2022-11-15T03:15:19;9.90;83.10
5868;DHT22;2960;49.142;7.768;2022-11-15T03:17:54;10.00;82.00
5868;DHT22;2960;49.142;7.768;2022-11-15T03:20:25;10.00;82.10
5868;DHT22;2960;49.142;7.768;2022-11-15T03:22:55;10.00;82.10
5868;DHT22;2960;49.142;7.768;2022-11-15T03:25:26;10.00;82.20
5868;DHT22;2960;49.142;7.768;2022-11-15T03:27:57;10.00;82.20
5868;DHT22;2960;49.142;7.768;2022-11-15T03:30:26;10.00;82.20
5868;DHT22;2960;49.142;7.768;2022-11-15T03:32:56;10.00;82.20
5868;DHT22;2960;49.142;7.768;2022-11-15T03:35:26;10.00;82.20
5868;DHT22;2960;49.142;7.768;2022-11-15T03:37:59;10.00;82.30
5868;DHT22;2960;49.142;7.768;2022-11-15T03:40:34;10.00;82.30
5868;DHT22;2960;49.142;7.768;2022-11-15T03:43:08;10.00;82.30
5868;DHT22;2960;49.142;7.768;2022-11-15T03:45:43;10.00;82.30
5868;DHT22;2960;49.142;7.768;2022-11-15T03:48:14;10.10;82.40
5868;DHT22;2960;49.142;7.768;2022-11-15T03:50:43;10.10;82.40
5868;DHT22;2960;49.142;7.768;2022-11-15T03:53:12;10.10;83.20
5868;DHT22;2960;49.142;7.768;2022-11-15T03:55:39;10.10;82.40
5868;DHT22;2960;49.142;7.768;2022-11-15T03:58:07;10.10;82.40
5868;DHT22;2960;49.142;7.768;2022-11-15T04:00:34;10.10;82.40
5868;DHT22;2960;49.142;7.768;2022-11-15T04:03:01;10.10;82.30
5868;DHT22;2960;49.142;7.768;2022-11-15T04:05:29;10.10;82.40
5868;DHT22;2960;49.142;7.768;2022-11-15T04:07:56;10.20;82.50
5868;DHT22;2960;49.142;7.768;2022-11-15T04:10:23;10.10;82.40
5868;DHT22;2960;49.142;7.768;2022-11-15T04:12:50;10.20;82.50
5868;DHT22;2960;49.142;7.768;2022-11-15T04:15:19;10.20;82.50
5868;DHT22;2960;49.142;7.768;2022-11-15T04:17:49;10.20;82.60
5868;DHT22;2960;49.142;7.768;2022-11-15T04:20:19;10.20;82.60
5868;DHT22;2960;49.142;7.768;2022-11-15T04:23:09;10.20;82.70
5868;DHT22;2960;49.142;7.768;2022-11-15T04:25:56;10.20;82.60
5868;DHT22;2960;49.142;7.768;2022-11-15T04:28:25;10.20;83.40
5868;DHT22;2960;49.142;7.768;2022-11-15T04:30:52;10.20;82.70
5868;DHT22;2960;49.142;7.768;2022-11-15T04:33:19;10.30;82.70
5868;DHT22;2960;49.142;7.768;2022-11-15T04:35:47;10.30;82.80
5868;DHT22;2960;49.142;7.768;2022-11-15T04:38:36;10.30;82.70
5868;DHT22;2960;49.142;7.768;2022-11-15T04:41:03;10.30;82.70
5868;DHT22;2960;49.142;7.768;2022-11-15T04:43:30;10.30;82.80
5868;DHT22;2960;49.142;7.768;2022-11-15T04:45:57;10.30;82.90
5868;DHT22;2960;49.142;7.768;2022-11-15T04:48:24;10.30;82.90
5868;DHT22;2960;49.142;7.768;2022-11-15T04:50:51;10.30;83.00
5868;DHT22;2960;49.142;7.768;2022-11-15T04:53:18;10.30;83.00
5868;DHT22;2960;49.142;7.768;2022-11-15T04:55:46;10.30;83.00
5868;DHT22;2960;49.142;7.768;2022-11-15T04:58:13;10.30;83.00
5868;DHT22;2960;49.142;7.768;2022-11-15T05:00:40;10.30;83.10
5868;DHT22;2960;49.142;7.768;2022-11-15T05:03:09;10.30;83.10
5868;DHT22;2960;49.142;7.768;2022-11-15T05:05:53;10.30;83.30
5868;DHT22;2960;49.142;7.768;2022-11-15T05:08:20;10.30;83.40
5868;DHT22;2960;49.142;7.768;2022-11-15T05:10:49;10.30;84.10
5868;DHT22;2960;49.142;7.768;2022-11-15T05:13:16;10.40;83.60
5868;DHT22;2960;49.142;7.768;2022-11-15T05:15:43;10.30;83.50
5868;DHT22;2960;49.142;7.768;2022-11-15T05:18:10;10.30;83.50
5868;DHT22;2960;49.142;7.768;2022-11-15T05:20:37;10.30;83.50
5868;DHT22;2960;49.142;7.768;2022-11-15T05:23:04;10.30;83.40
5868;DHT22;2960;49.142;7.768;2022-11-15T05:25:32;10.30;83.50
5868;DHT22;2960;49.142;7.768;2022-11-15T05:28:00;10.30;83.60
5868;DHT22;2960;49.142;7.768;2022-11-15T05:30:27;10.30;83.70
5868;DHT22;2960;49.142;7.768;2022-11-15T05:32:54;10.30;83.80
5868;DHT22;2960;49.142;7.768;2022-11-15T05:35:30;10.30;83.80
5868;DHT22;2960;49.142;7.768;2022-11-15T05:37:58;10.30;83.80
5868;DHT22;2960;49.142;7.768;2022-11-15T05:40:25;10.30;83.90
5868;DHT22;2960;49.142;7.768;2022-11-15T05:42:53;10.30;83.90
5868;DHT22;2960;49.142;7.768;2022-11-15T05:45:21;10.30;83.90
5868;DHT22;2960;49.142;7.768;2022-11-15T05:47:49;10.30;83.90
5868;DHT22;2960;49.142;7.768;2022-11-15T05:50:17;10.30;84.70
5868;DHT22;2960;49.142;7.768;2022-11-15T05:52:45;10.30;83.90
5868;DHT22;2960;49.142;7.768;2022-11-15T05:55:13;10.30;83.90
5868;DHT22;2960;49.142;7.768;2022-11-15T05:57:40;10.30;84.00
5868;DHT22;2960;49.142;7.768;2022-11-15T06:00:08;10.30;84.70
5868;DHT22;2960;49.142;7.768;2022-11-15T06:02:37;10.30;84.10
5868;DHT22;2960;49.142;7.768;2022-11-15T06:05:05;10.30;84.10
5868;DHT22;2960;49.142;7.768;2022-11-15T06:07:32;10.30;84.20
5868;DHT22;2960;49.142;7.768;2022-11-15T06:09:59;10.30;84.30
5868;DHT22;2960;49.142;7.768;2022-11-15T06:12:26;10.20;84.30
5868;DHT22;2960;49.142;7.768;2022-11-15T06:14:53;10.20;84.30
5868;DHT22;2960;49.142;7.768;2022-11-15T06:17:20;10.20;84.40
5868;DHT22;2960;49.142;7.768;2022-11-15T06:19:49;10.20;84.40
5868;DHT22;2960;49.142;7.768;2022-11-15T06:22:16;10.20;84.40
5868;DHT22;2960;49.142;7.768;2022-11-15T06:24:43;10.30;84.50
5868;DHT22;2960;49.142;7.768;2022-11-15T06:27:10;10.20;84.40
5868;DHT22;2960;49.142;7.768;2022-11-15T06:29:37;10.20;84.30
5868;DHT22;2960;49.142;7.768;2022-11-15T06:32:05;10.20;84.30
5868;DHT22;2960;49.142;7.768;2022-11-15T06:34:32;10.30;84.30
5868;DHT22;2960;49.142;7.768;2022-11-15T06:37:00;10.30;84.30
5868;DHT22;2960;49.142;7.768;2022-11-15T06:39:27;10.20;84.20
5868;DHT22;2960;49.142;7.768;2022-11-15T06:41:54;10.20;84.20
5868;DHT22;2960;49.142;7.768;2022-11-15T06:44:21;10.30;85.10
5868;DHT22;2960;49.142;7.768;2022-11-15T06:46:48;10.20;84.20
5868;DHT22;2960;49.142;7.768;2022-11-15T06:49:15;10.30;84.40
5868;DHT22;2960;49.142;7.768;2022-11-15T06:51:43;10.20;84.30
5868;DHT22;2960;49.142;7.768;2022-11-15T06:54:11;10.20;84.30
5868;DHT22;2960;49.142;7.768;2022-11-15T06:56:38;10.20;85.10
5868;DHT22;2960;49.142;7.768;2022-11-15T06:59:05;10.20;84.40
5868;DHT22;2960;49.142;7.768;2022-11-15T07:01:32;10.20;84.50
5868;DHT22;2960;49.142;7.768;2022-11-15T07:03:59;10.20;84.50
5868;DHT22;2960;49.142;7.768;2022-11-15T07:06:26;10.20;84.60
5868;DHT22;2960;49.142;7.768;2022-11-15T07:08:53;10.40;84.80
5868;DHT22;2960;49.142;7.768;2022-11-15T07:11:22;10.20;84.60
5868;DHT22;2960;49.142;7.768;2022-11-15T07:13:49;10.30;84.70
5868;DHT22;2960;49.142;7.768;2022-11-15T07:16:16;10.30;84.70
5868;DHT22;2960;49.142;7.768;2022-11-15T07:18:43;10.30;84.70
5868;DHT22;2960;49.142;7.768;2022-11-15T07:21:10;10.30;84.70
5868;DHT22;2960;49.142;7.768;2022-11-15T07:23:38;10.30;84.70
5868;DHT22;2960;49.142;7.768;2022-11-15T07:26:06;10.40;84.90
5868;DHT22;2960;49.142;7.768;2022-11-15T07:28:34;10.40;84.60
5868;DHT22;2960;49.142;7.768;2022-11-15T07:31:02;10.40;84.60
5868;DHT22;2960;49.142;7.768;2022-11-15T07:33:30;10.40;84.50
5868;DHT22;2960;49.142;7.768;2022-11-15T07:35:59;10.40;84.50
5868;DHT22;2960;49.142;7.768;2022-11-15T07:38:27;10.40;84.60
5868;DHT22;2960;49.142;7.768;2022-11-15T07:40:58;10.40;84.60
5868;DHT22;2960;49.142;7.768;2022-11-15T07:43:27;10.50;84.70
5868;DHT22;2960;49.142;7.768;2022-11-15T07:45:56;10.40;84.80
5868;DHT22;2960;49.142;7.768;2022-11-15T07:48:23;10.40;84.90
5868;DHT22;2960;49.142;7.768;2022-11-15T07:50:50;10.40;85.00
5868;DHT22;2960;49.142;7.768;2022-11-15T07:53:17;10.50;85.20
5868;DHT22;2960;49.142;7.768;2022-11-15T07:55:44;10.40;85.20
5868;DHT22;2960;49.142;7.768;2022-11-15T07:58:12;10.40;85.30
5868;DHT22;2960;49.142;7.768;2022-11-15T08:00:39;10.50;85.50
5868;DHT22;2960;49.142;7.768;2022-11-15T08:03:09;10.50;85.60
5868;DHT22;2960;49.142;7.768;2022-11-15T08:05:38;10.50;85.70
5868;DHT22;2960;49.142;7.768;2022-11-15T08:08:07;10.50;85.70
5868;DHT22;2960;49.142;7.768;2022-11-15T08:10:36;10.60;86.00
5868;DHT22;2960;49.142;7.768;2022-11-15T08:13:04;10.50;86.00
5868;DHT22;2960;49.142;7.768;2022-11-15T08:15:34;10.70;86.20
5868;DHT22;2960;49.142;7.768;2022-11-15T08:18:03;10.60;86.10
5868;DHT22;2960;49.142;7.768;2022-11-15T08:20:33;10.60;86.10
5868;DHT22;2960;49.142;7.768;2022-11-15T08:23:01;10.60;86.30
5868;DHT22;2960;49.142;7.768;2022-11-15T08:25:30;10.60;86.30
5868;DHT22;2960;49.142;7.768;2022-11-15T08:28:00;10.60;86.40
5868;DHT22;2960;49.142;7.768;2022-11-15T08:30:29;10.60;86.40
5868;DHT22;2960;49.142;7.768;2022-11-15T08:32:58;10.70;86.40
5868;DHT22;2960;49.142;7.768;2022-11-15T08:35:25;10.70;86.40
5868;DHT22;2960;49.142;7.768;2022-11-15T08:37:54;10.70;86.40
5868;DHT22;2960;49.142;7.768;2022-11-15T08:40:21;10.80;86.60
5868;DHT22;2960;49.142;7.768;2022-11-15T08:42:49;10.80;86.50
5868;DHT22;2960;49.142;7.768;2022-11-15T08:45:16;10.90;86.60
5868;DHT22;2960;49.142;7.768;2022-11-15T08:47:43;10.90;86.60
5868;DHT22;2960;49.142;7.768;2022-11-15T08:50:10;10.90;86.50
5868;DHT22;2960;49.142;7.768;2022-11-15T08:52:37;10.90;86.50
5868;DHT22;2960;49.142;7.768;2022-11-15T08:55:06;11.00;86.60
5868;DHT22;2960;49.142;7.768;2022-11-15T08:57:34;11.00;86.60
5868;DHT22;2960;49.142;7.768;2022-11-15T09:00:02;11.00;86.50
5868;DHT22;2960;49.142;7.768;2022-11-15T09:02:30;11.10;86.60
5868;DHT22;2960;49.142;7.768;2022-11-15T09:04:57;11.10;86.60
5868;DHT22;2960;49.142;7.768;2022-11-15T09:07:24;11.20;86.80
5868;DHT22;2960;49.142;7.768;2022-11-15T09:09:51;11.10;86.70
5868;DHT22;2960;49.142;7.768;2022-11-15T09:12:20;11.10;86.70
5868;DHT22;2960;49.142;7.768;2022-11-15T09:14:47;11.20;86.70
5868;DHT22;2960;49.142;7.768;2022-11-15T09:17:14;11.20;86.80
5868;DHT22;2960;49.142;7.768;2022-11-15T09:19:41;11.20;86.80
5868;DHT22;2960;49.142;7.768;2022-11-15T09:22:08;11.30;86.90
5868;DHT22;2960;49.142;7.768;2022-11-15T09:24:35;11.30;86.90
5868;DHT22;2960;49.142;7.768;2022-11-15T09:27:02;11.30;86.90
5868;DHT22;2960;49.142;7.768;2022-11-15T09:29:31;11.30;86.80
5868;DHT22;2960;49.142;7.768;2022-11-15T09:31:58;11.40;87.00
5868;DHT22;2960;49.142;7.768;2022-11-15T09:34:25;11.40;87.00
5868;DHT22;2960;49.142;7.768;2022-11-15T09:36:52;11.40;87.00
5868;DHT22;2960;49.142;7.768;2022-11-15T09:39:19;11.40;87.00
5868;DHT22;2960;49.142;7.768;2022-11-15T09:41:55;11.50;87.10
5868;DHT22;2960;49.142;7.768;2022-11-15T09:44:41;11.50;87.10
5868;DHT22;2960;49.142;7.768;2022-11-15T09:50:37;11.50;87.00
5868;DHT22;2960;49.142;7.768;2022-11-15T09:53:11;11.50;87.20
5868;DHT22;2960;49.142;7.768;2022-11-15T09:55:49;11.60;87.30
5868;DHT22;2960;49.142;7.768;2022-11-15T09:58:25;11.60;87.40
5868;DHT22;2960;49.142;7.768;2022-11-15T10:01:00;11.60;88.00
5868;DHT22;2960;49.142;7.768;2022-11-15T10:03:34;11.70;87.40
5868;DHT22;2960;49.142;7.768;2022-11-15T10:06:04;11.70;87.40
5868;DHT22;2960;49.142;7.768;2022-11-15T10:08:42;11.70;87.50
5868;DHT22;2960;49.142;7.768;2022-11-15T10:11:17;11.80;87.50
5868;DHT22;2960;49.142;7.768;2022-11-15T10:13:47;11.80;87.60
5868;DHT22;2960;49.142;7.768;2022-11-15T10:16:36;11.80;87.60
5868;DHT22;2960;49.142;7.768;2022-11-15T10:19:30;11.80;87.50
5868;DHT22;2960;49.142;7.768;2022-11-15T10:22:12;11.90;87.80
5868;DHT22;2960;49.142;7.768;2022-11-15T10:24:45;11.90;87.90
5868;DHT22;2960;49.142;7.768;2022-11-15T10:27:15;11.90;88.10
5868;DHT22;2960;49.142;7.768;2022-11-15T10:29:44;12.00;88.40
5868;DHT22;2960;49.142;7.768;2022-11-15T10:32:16;12.10;88.80
5868;DHT22;2960;49.142;7.768;2022-11-15T10:34:44;12.20;89.10
5868;DHT22;2960;49.142;7.768;2022-11-15T10:37:11;12.30;89.50
5868;DHT22;2960;49.142;7.768;2022-11-15T10:39:38;12.40;90.00
5868;DHT22;2960;49.142;7.768;2022-11-15T10:42:16;12.50;90.30
5868;DHT22;2960;49.142;7.768;2022-11-15T10:44:45;12.80;91.00
5868;DHT22;2960;49.142;7.768;2022-11-15T10:47:31;13.20;91.60
5868;DHT22;2960;49.142;7.768;2022-11-15T10:50:01;13.70;91.80
5868;DHT22;2960;49.142;7.768;2022-11-15T10:52:32;14.00;91.50
5868;DHT22;2960;49.142;7.768;2022-11-15T10:55:05;14.40;91.00
5868;DHT22;2960;49.142;7.768;2022-11-15T10:57:49;14.60;90.30
5868;DHT22;2960;49.142;7.768;2022-11-15T11:00:29;14.80;89.60
5868;DHT22;2960;49.142;7.768;2022-11-15T11:03:02;14.80;88.70
5868;DHT22;2960;49.142;7.768;2022-11-15T11:05:33;14.80;88.30
5868;DHT22;2960;49.142;7.768;2022-11-15T11:08:04;14.90;88.30
5868;DHT22;2960;49.142;7.768;2022-11-15T11:10:32;15.00;88.50
5868;DHT22;2960;49.142;7.768;2022-11-15T11:13:13;15.10;88.80
5868;DHT22;2960;49.142;7.768;2022-11-15T11:15:44;15.30;90.00
5868;DHT22;2960;49.142;7.768;2022-11-15T11:18:21;15.50;89.80
5868;DHT22;2960;49.142;7.768;2022-11-15T11:20:52;15.70;88.80
5868;DHT22;2960;49.142;7.768;2022-11-15T11:23:36;15.90;87.60
5868;DHT22;2960;49.142;7.768;2022-11-15T11:26:29;16.00;86.70
5868;DHT22;2960;49.142;7.768;2022-11-15T11:29:08;16.00;86.00
5868;DHT22;2960;49.142;7.768;2022-11-15T11:31:51;16.00;86.00
5868;DHT22;2960;49.142;7.768;2022-11-15T11:34:36;16.00;84.70
5868;DHT22;2960;49.142;7.768;2022-11-15T11:37:17;15.90;84.20
5868;DHT22;2960;49.142;7.768;2022-11-15T11:39:57;15.90;83.90
5868;DHT22;2960;49.142;7.768;2022-11-15T11:42:37;15.80;83.50
5868;DHT22;2960;49.142;7.768;2022-11-15T11:45:15;15.70;82.90
5868;DHT22;2960;49.142;7.768;2022-11-15T11:47:48;15.70;82.80
5868;DHT22;2960;49.142;7.768;2022-11-15T11:50:21;15.70;82.80
5868;DHT22;2960;49.142;7.768;2022-11-15T11:52:57;15.70;83.30
5868;DHT22;2960;49.142;7.768;2022-11-15T11:55:29;15.70;82.00
5868;DHT22;2960;49.142;7.768;2022-11-15T11:58:04;15.70;81.80
5868;DHT22;2960;49.142;7.768;2022-11-15T12:00:40;15.70;81.60
5868;DHT22;2960;49.142;7.768;2022-11-15T12:03:12;15.80;82.20
5868;DHT22;2960;49.142;7.768;2022-11-15T12:05:46;15.80;80.80
5868;DHT22;2960;49.142;7.768;2022-11-15T12:08:35;15.90;80.40
5868;DHT22;2960;49.142;7.768;2022-11-15T12:11:21;15.90;79.70
5868;DHT22;2960;49.142;7.768;2022-11-15T12:13:57;15.80;79.30
5868;DHT22;2960;49.142;7.768;2022-11-15T12:16:27;15.80;79.10
5868;DHT22;2960;49.142;7.768;2022-11-15T12:18:58;15.80;78.60
5868;DHT22;2960;49.142;7.768;2022-11-15T12:21:37;15.80;79.10
5868;DHT22;2960;49.142;7.768;2022-11-15T12:24:16;15.80;78.10
5868;DHT22;2960;49.142;7.768;2022-11-15T12:26:49;15.80;77.80
5868;DHT22;2960;49.142;7.768;2022-11-15T12:29:23;15.80;77.70
5868;DHT22;2960;49.142;7.768;2022-11-15T12:31:54;15.80;77.70
5868;DHT22;2960;49.142;7.768;2022-11-15T12:34:41;15.90;77.60
5868;DHT22;2960;49.142;7.768;2022-11-15T12:40:27;15.90;77.00
5868;DHT22;2960;49.142;7.768;2022-11-15T12:46:13;15.90;76.80
5868;DHT22;2960;49.142;7.768;2022-11-15T12:48:52;15.90;76.40
5868;DHT22;2960;49.142;7.768;2022-11-15T12:55:01;15.90;76.00
5868;DHT22;2960;49.142;7.768;2022-11-15T12:57:35;15.90;75.70
5868;DHT22;2960;49.142;7.768;2022-11-15T13:03:21;15.80;75.30
5868;DHT22;2960;49.142;7.768;2022-11-15T13:06:06;15.70;75.10
5868;DHT22;2960;49.142;7.768;2022-11-15T13:08:47;15.70;75.20
5868;DHT22;2960;49.142;7.768;2022-11-15T13:11:46;15.60;74.90
5868;DHT22;2960;49.142;7.768;2022-11-15T13:14:48;15.60;74.90
5868;DHT22;2960;49.142;7.768;2022-11-15T13:17:34;15.60;74.80
5868;DHT22;2960;49.142;7.768;2022-11-15T13:20:30;15.50;74.70
5868;DHT22;2960;49.142;7.768;2022-11-15T13:23:07;15.50;74.70
5868;DHT22;2960;49.142;7.768;2022-11-15T13:26:08;15.50;74.70
5868;DHT22;2960;49.142;7.768;2022-11-15T13:28:43;15.50;74.60
5868;DHT22;2960;49.142;7.768;2022-11-15T13:31:22;15.50;74.60
5868;DHT22;2960;49.142;7.768;2022-11-15T13:33:52;15.50;74.50
5868;DHT22;2960;49.142;7.768;2022-11-15T13:36:22;15.40;74.30
5868;DHT22;2960;49.142;7.768;2022-11-15T13:38:56;15.40;74.20
5868;DHT22;2960;49.142;7.768;2022-11-15T13:41:27;15.40;74.20
5868;DHT22;2960;49.142;7.768;2022-11-15T13:43:57;15.40;74.30
5868;DHT22;2960;49.142;7.768;2022-11-15T13:46:26;15.40;74.30
5868;DHT22;2960;49.142;7.768;2022-11-15T13:48:58;15.30;74.10
5868;DHT22;2960;49.142;7.768;2022-11-15T13:51:38;15.30;75.00
5868;DHT22;2960;49.142;7.768;2022-11-15T13:54:16;15.30;75.00
5868;DHT22;2960;49.142;7.768;2022-11-15T13:56:48;15.30;74.30
5868;DHT22;2960;49.142;7.768;2022-11-15T13:59:23;15.20;74.20
5868;DHT22;2960;49.142;7.768;2022-11-15T14:01:53;15.20;74.20
5868;DHT22;2960;49.142;7.768;2022-11-15T14:04:22;15.30;74.30
5868;DHT22;2960;49.142;7.768;2022-11-15T14:06:54;15.20;74.20
5868;DHT22;2960;49.142;7.768;2022-11-15T14:09:36;15.20;74.20
5868;DHT22;2960;49.142;7.768;2022-11-15T14:12:25;15.20;74.20
5868;DHT22;2960;49.142;7.768;2022-11-15T14:14:54;15.20;74.20
5868;DHT22;2960;49.142;7.768;2022-11-15T14:17:34;15.20;74.20
5868;DHT22;2960;49.142;7.768;2022-11-15T14:20:19;15.20;74.20
5868;DHT22;2960;49.142;7.768;2022-11-15T14:22:55;15.20;74.20
5868;DHT22;2960;49.142;7.768;2022-11-15T14:25:24;15.20;74.30
5868;DHT22;2960;49.142;7.768;2022-11-15T14:28:11;15.10;74.20
5868;DHT22;2960;49.142;7.768;2022-11-15T14:30:40;15.10;74.10
5868;DHT22;2960;49.142;7.768;2022-11-15T14:33:20;15.10;74.10
5868;DHT22;2960;49.142;7.768;2022-11-15T14:35:49;15.10;74.10
5868;DHT22;2960;49.142;7.768;2022-11-15T14:38:17;15.10;74.10
5868;DHT22;2960;49.142;7.768;2022-11-15T14:40:45;15.10;74.10
5868;DHT22;2960;49.142;7.768;2022-11-15T14:43:12;15.10;74.10
5868;DHT22;2960;49.142;7.768;2022-11-15T14:45:40;15.00;74.00
5868;DHT22;2960;49.142;7.768;2022-11-15T14:48:09;15.00;74.10
5868;DHT22;2960;49.142;7.768;2022-11-15T14:50:36;15.00;74.10
5868;DHT22;2960;49.142;7.768;2022-11-15T14:53:04;15.00;74.10
5868;DHT22;2960;49.142;7.768;2022-11-15T14:55:35;15.00;74.10
5868;DHT22;2960;49.142;7.768;2022-11-15T14:58:03;15.00;74.10
5868;DHT22;2960;49.142;7.768;2022-11-15T15:00:30;15.00;74.10
5868;DHT22;2960;49.142;7.768;2022-11-15T15:02:58;14.90;74.00
5868;DHT22;2960;49.142;7.768;2022-11-15T15:05:29;14.90;74.00
5868;DHT22;2960;49.142;7.768;2022-11-15T15:07:57;14.90;74.00
5868;DHT22;2960;49.142;7.768;2022-11-15T15:10:26;14.90;74.00
5868;DHT22;2960;49.142;7.768;2022-11-15T15:12:56;14.90;74.00
5868;DHT22;2960;49.142;7.768;2022-11-15T15:15:25;14.90;74.00
5868;DHT22;2960;49.142;7.768;2022-11-15T15:17:54;14.90;74.00
5868;DHT22;2960;49.142;7.768;2022-11-15T15:20:21;14.90;74.00
5868;DHT22;2960;49.142;7.768;2022-11-15T15:22:48;14.90;74.00
5868;DHT22;2960;49.142;7.768;2022-11-15T15:25:23;14.80;74.00
5868;DHT22;2960;49.142;7.768;2022-11-15T15:27:53;14.80;74.00
5868;DHT22;2960;49.142;7.768;2022-11-15T15:30:23;14.80;74.20
5868;DHT22;2960;49.142;7.768;2022-11-15T15:32:50;14.80;74.30
5868;DHT22;2960;49.142;7.768;2022-11-15T15:35:18;14.80;74.40
5868;DHT22;2960;49.142;7.768;2022-11-15T15:37:46;14.80;74.40
5868;DHT22;2960;49.142;7.768;2022-11-15T15:40:17;14.70;74.30
5868;DHT22;2960;49.142;7.768;2022-11-15T15:42:45;14.70;74.50
5868;DHT22;2960;49.142;7.768;2022-11-15T15:45:12;14.70;74.60
5868;DHT22;2960;49.142;7.768;2022-11-15T15:47:41;14.70;75.40
5868;DHT22;2960;49.142;7.768;2022-11-15T15:50:20;14.60;74.60
5868;DHT22;2960;49.142;7.768;2022-11-15T15:52:49;14.60;75.50
5868;DHT22;2960;49.142;7.768;2022-11-15T15:55:16;14.60;75.00
5868;DHT22;2960;49.142;7.768;2022-11-15T15:57:43;14.60;75.00
5868;DHT22;2960;49.142;7.768;2022-11-15T16:00:12;14.50;75.10
5868;DHT22;2960;49.142;7.768;2022-11-15T16:02:41;14.50;75.20
5868;DHT22;2960;49.142;7.768;2022-11-15T16:05:09;14.50;75.30
5868;DHT22;2960;49.142;7.768;2022-11-15T16:07:37;14.50;75.50
5868;DHT22;2960;49.142;7.768;2022-11-15T16:10:17;14.40;75.50
5868;DHT22;2960;49.142;7.768;2022-11-15T16:12:46;14.50;75.70
5868;DHT22;2960;49.142;7.768;2022-11-15T16:15:14;14.40;75.80
5868;DHT22;2960;49.142;7.768;2022-11-15T16:17:46;14.40;75.90
5868;DHT22;2960;49.142;7.768;2022-11-15T16:20:30;14.40;76.10
5868;DHT22;2960;49.142;7.768;2022-11-15T16:23:02;14.30;76.10
5868;DHT22;2960;49.142;7.768;2022-11-15T16:25:32;14.30;76.30
5868;DHT22;2960;49.142;7.768;2022-11-15T16:28:01;14.20;76.30
5868;DHT22;2960;49.142;7.768;2022-11-15T16:30:28;14.20;76.30
5868;DHT22;2960;49.142;7.768;2022-11-15T16:32:57;14.20;76.40
5868;DHT22;2960;49.142;7.768;2022-11-15T16:35:24;14.20;77.30
5868;DHT22;2960;49.142;7.768;2022-11-15T16:37:51;14.20;76.50
5868;DHT22;2960;49.142;7.768;2022-11-15T16:40:24;14.20;77.20
5868;DHT22;2960;49.142;7.768;2022-11-15T16:42:53;14.20;76.50
5868;DHT22;2960;49.142;7.768;2022-11-15T16:45:21;14.10;76.40
5868;DHT22;2960;49.142;7.768;2022-11-15T16:47:48;14.10;76.40
5868;DHT22;2960;49.142;7.768;2022-11-15T16:50:20;14.10;76.40